Moran, Iowa
Current Conditions -  °F | °C
As of 3:55 PM on Friday 24 Oct 2014 (Local Time) from KPRO Reporting Station
Clear Clear  
Wind Chill: 73°   Ceiling: Unl
Heat Index: 73°   Visibility: 10mi
Dew Point: 59°   Wind: 8mph
Humidity: 63%   Direction: 260°W
Pressure: 29.88"   Gusts: NA
Location:  41.8164°N, 93.8864°W
Report Text: KPRO 242055Z AUTO 26007KT 10SM CLR 23/15 A2988 RMK AO2 T02250151
Loading
Personal Weather Stations






























Interactive Weather Map
Tropical Storm Tracking
New forecast layout! Learn more

10-Day Weather Forecast

Advertisements
Track Severe Weather on mobile